sensor_id;sensor_type;location;lat;lon;timestamp;P1;durP1;ratioP1;P2;durP2;ratioP2
44046;SDS011;29713;-33.888;151.150;2023-06-22T00:00:14;6.90;;;4.80;;
44046;SDS011;29713;-33.888;151.150;2023-06-22T00:02:42;8.27;;;4.43;;
44046;SDS011;29713;-33.888;151.150;2023-06-22T00:05:09;6.83;;;3.90;;
44046;SDS011;29713;-33.888;151.150;2023-06-22T00:07:36;8.67;;;4.43;;
44046;SDS011;29713;-33.888;151.150;2023-06-22T00:10:04;9.57;;;4.03;;
44046;SDS011;29713;-33.888;151.150;2023-06-22T00:12:31;10.53;;;3.83;;
44046;SDS011;29713;-33.888;151.150;2023-06-22T00:14:59;6.40;;;3.67;;
44046;SDS011;29713;-33.888;151.150;2023-06-22T00:17:26;7.03;;;4.13;;
44046;SDS011;29713;-33.888;151.150;2023-06-22T00:19:53;8.80;;;4.23;;
44046;SDS011;29713;-33.888;151.150;2023-06-22T00:22:24;6.50;;;3.37;;
44046;SDS011;29713;-33.888;151.150;2023-06-22T00:24:54;8.73;;;3.53;;
44046;SDS011;29713;-33.888;151.150;2023-06-22T00:27:22;8.53;;;4.00;;
44046;SDS011;29713;-33.888;151.150;2023-06-22T00:29:49;5.37;;;3.83;;
44046;SDS011;29713;-33.888;151.150;2023-06-22T00:32:17;8.87;;;4.37;;
44046;SDS011;29713;-33.888;151.150;2023-06-22T00:34:44;10.70;;;4.27;;
44046;SDS011;29713;-33.888;151.150;2023-06-22T00:37:15;13.17;;;3.93;;
44046;SDS011;29713;-33.888;151.150;2023-06-22T00:39:42;8.37;;;4.57;;
44046;SDS011;29713;-33.888;151.150;2023-06-22T00:42:10;11.37;;;4.10;;
44046;SDS011;29713;-33.888;151.150;2023-06-22T00:44:37;8.87;;;4.63;;
44046;SDS011;29713;-33.888;151.150;2023-06-22T00:47:05;9.03;;;4.20;;
44046;SDS011;29713;-33.888;151.150;2023-06-22T00:49:32;9.83;;;4.33;;
44046;SDS011;29713;-33.888;151.150;2023-06-22T00:52:00;6.33;;;3.93;;
44046;SDS011;29713;-33.888;151.150;2023-06-22T00:54:27;9.93;;;4.20;;
44046;SDS011;29713;-33.888;151.150;2023-06-22T00:56:55;8.80;;;4.00;;
44046;SDS011;29713;-33.888;151.150;2023-06-22T00:59:24;10.57;;;3.77;;
44046;SDS011;29713;-33.888;151.150;2023-06-22T01:01:52;17.60;;;4.97;;
44046;SDS011;29713;-33.888;151.150;2023-06-22T01:04:19;10.13;;;4.30;;
44046;SDS011;29713;-33.888;151.150;2023-06-22T01:12:15;10.57;;;4.37;;
44046;SDS011;29713;-33.888;151.150;2023-06-22T01:14:50;10.93;;;4.20;;
44046;SDS011;29713;-33.888;151.150;2023-06-22T01:17:28;8.13;;;4.10;;
44046;SDS011;29713;-33.888;151.150;2023-06-22T01:19:57;8.83;;;3.97;;
44046;SDS011;29713;-33.888;151.150;2023-06-22T01:22:31;9.07;;;4.00;;
44046;SDS011;29713;-33.888;151.150;2023-06-22T01:25:26;12.27;;;4.37;;
44046;SDS011;29713;-33.888;151.150;2023-06-22T01:28:13;7.37;;;4.27;;
44046;SDS011;29713;-33.888;151.150;2023-06-22T01:30:45;8.03;;;4.03;;
44046;SDS011;29713;-33.888;151.150;2023-06-22T01:33:14;7.33;;;3.93;;
44046;SDS011;29713;-33.888;151.150;2023-06-22T01:35:43;5.73;;;3.53;;
44046;SDS011;29713;-33.888;151.150;2023-06-22T01:38:10;9.77;;;4.10;;
44046;SDS011;29713;-33.888;151.150;2023-06-22T01:40:38;12.73;;;4.50;;
44046;SDS011;29713;-33.888;151.150;2023-06-22T01:43:06;7.07;;;3.70;;
44046;SDS011;29713;-33.888;151.150;2023-06-22T01:45:33;8.40;;;3.73;;
44046;SDS011;29713;-33.888;151.150;2023-06-22T01:48:01;11.83;;;3.90;;
44046;SDS011;29713;-33.888;151.150;2023-06-22T01:50:28;7.60;;;3.77;;
44046;SDS011;29713;-33.888;151.150;2023-06-22T01:52:56;7.03;;;3.67;;
44046;SDS011;29713;-33.888;151.150;2023-06-22T01:55:23;8.53;;;3.43;;
44046;SDS011;29713;-33.888;151.150;2023-06-22T01:57:50;6.33;;;3.47;;
44046;SDS011;29713;-33.888;151.150;2023-06-22T02:00:21;9.63;;;3.87;;
44046;SDS011;29713;-33.888;151.150;2023-06-22T02:02:56;9.33;;;3.40;;
44046;SDS011;29713;-33.888;151.150;2023-06-22T02:05:38;7.70;;;3.50;;
44046;SDS011;29713;-33.888;151.150;2023-06-22T02:08:13;6.33;;;3.57;;
44046;SDS011;29713;-33.888;151.150;2023-06-22T02:10:48;9.55;;;3.75;;
44046;SDS011;29713;-33.888;151.150;2023-06-22T02:13:17;7.63;;;2.97;;
44046;SDS011;29713;-33.888;151.150;2023-06-22T02:15:45;9.37;;;3.30;;
44046;SDS011;29713;-33.888;151.150;2023-06-22T02:18:13;7.13;;;3.10;;
44046;SDS011;29713;-33.888;151.150;2023-06-22T02:20:41;11.80;;;3.95;;
44046;SDS011;29713;-33.888;151.150;2023-06-22T02:23:08;8.93;;;3.63;;
44046;SDS011;29713;-33.888;151.150;2023-06-22T02:25:36;5.93;;;2.80;;
44046;SDS011;29713;-33.888;151.150;2023-06-22T02:28:04;8.43;;;2.80;;
44046;SDS011;29713;-33.888;151.150;2023-06-22T02:30:31;11.18;;;2.83;;
44046;SDS011;29713;-33.888;151.150;2023-06-22T02:32:58;8.18;;;2.45;;
44046;SDS011;29713;-33.888;151.150;2023-06-22T02:35:26;4.93;;;2.60;;
44046;SDS011;29713;-33.888;151.150;2023-06-22T02:37:58;8.52;;;2.88;;
44046;SDS011;29713;-33.888;151.150;2023-06-22T02:40:26;5.40;;;2.45;;
44046;SDS011;29713;-33.888;151.150;2023-06-22T02:42:55;6.07;;;2.03;;
44046;SDS011;29713;-33.888;151.150;2023-06-22T02:45:30;4.13;;;1.95;;
44046;SDS011;29713;-33.888;151.150;2023-06-22T02:47:57;2.75;;;1.80;;
44046;SDS011;29713;-33.888;151.150;2023-06-22T02:50:25;4.20;;;2.00;;
44046;SDS011;29713;-33.888;151.150;2023-06-22T02:52:52;4.00;;;1.90;;
44046;SDS011;29713;-33.888;151.150;2023-06-22T02:55:19;4.75;;;1.67;;
44046;SDS011;29713;-33.888;151.150;2023-06-22T02:57:47;6.15;;;2.10;;
44046;SDS011;29713;-33.888;151.150;2023-06-22T03:00:19;5.22;;;1.90;;
44046;SDS011;29713;-33.888;151.150;2023-06-22T03:02:47;4.90;;;2.10;;
44046;SDS011;29713;-33.888;151.150;2023-06-22T03:05:15;4.65;;;1.92;;
44046;SDS011;29713;-33.888;151.150;2023-06-22T03:07:44;4.82;;;1.63;;
44046;SDS011;29713;-33.888;151.150;2023-06-22T03:10:12;6.35;;;1.95;;
44046;SDS011;29713;-33.888;151.150;2023-06-22T03:12:41;3.13;;;1.40;;
44046;SDS011;29713;-33.888;151.150;2023-06-22T03:15:10;6.90;;;2.03;;
44046;SDS011;29713;-33.888;151.150;2023-06-22T03:17:38;3.97;;;2.00;;
44046;SDS011;29713;-33.888;151.150;2023-06-22T03:20:06;5.88;;;1.77;;
44046;SDS011;29713;-33.888;151.150;2023-06-22T03:22:36;5.50;;;1.80;;
44046;SDS011;29713;-33.888;151.150;2023-06-22T03:25:05;3.92;;;2.03;;
44046;SDS011;29713;-33.888;151.150;2023-06-22T03:27:36;4.35;;;1.70;;
44046;SDS011;29713;-33.888;151.150;2023-06-22T03:30:08;3.47;;;1.65;;
44046;SDS011;29713;-33.888;151.150;2023-06-22T03:32:37;2.72;;;1.58;;
44046;SDS011;29713;-33.888;151.150;2023-06-22T03:35:06;3.80;;;1.50;;
44046;SDS011;29713;-33.888;151.150;2023-06-22T03:37:34;6.57;;;2.20;;
44046;SDS011;29713;-33.888;151.150;2023-06-22T03:40:01;4.18;;;1.85;;
44046;SDS011;29713;-33.888;151.150;2023-06-22T03:42:33;5.55;;;1.98;;
44046;SDS011;29713;-33.888;151.150;2023-06-22T03:45:02;4.93;;;1.85;;
44046;SDS011;29713;-33.888;151.150;2023-06-22T03:47:30;2.90;;;1.80;;
44046;SDS011;29713;-33.888;151.150;2023-06-22T03:49:58;4.93;;;1.90;;
44046;SDS011;29713;-33.888;151.150;2023-06-22T03:52:25;4.43;;;1.48;;
44046;SDS011;29713;-33.888;151.150;2023-06-22T03:54:52;3.35;;;2.00;;
44046;SDS011;29713;-33.888;151.150;2023-06-22T03:57:20;7.65;;;1.77;;
44046;SDS011;29713;-33.888;151.150;2023-06-22T03:59:47;4.30;;;2.15;;
44046;SDS011;29713;-33.888;151.150;2023-06-22T04:02:15;6.27;;;2.50;;
44046;SDS011;29713;-33.888;151.150;2023-06-22T04:04:42;3.72;;;1.70;;
44046;SDS011;29713;-33.888;151.150;2023-06-22T04:07:09;3.27;;;1.70;;
44046;SDS011;29713;-33.888;151.150;2023-06-22T04:09:37;2.83;;;1.70;;
44046;SDS011;29713;-33.888;151.150;2023-06-22T04:12:04;5.97;;;2.10;;
44046;SDS011;29713;-33.888;151.150;2023-06-22T04:14:32;3.83;;;1.70;;
44046;SDS011;29713;-33.888;151.150;2023-06-22T04:16:59;4.90;;;2.00;;
44046;SDS011;29713;-33.888;151.150;2023-06-22T04:19:27;6.43;;;2.10;;
44046;SDS011;29713;-33.888;151.150;2023-06-22T04:21:54;6.97;;;1.73;;
44046;SDS011;29713;-33.888;151.150;2023-06-22T04:24:22;5.45;;;1.90;;
44046;SDS011;29713;-33.888;151.150;2023-06-22T04:26:49;4.75;;;1.88;;
44046;SDS011;29713;-33.888;151.150;2023-06-22T04:29:20;6.80;;;2.20;;
44046;SDS011;29713;-33.888;151.150;2023-06-22T04:31:54;5.00;;;2.27;;
44046;SDS011;29713;-33.888;151.150;2023-06-22T04:34:24;3.90;;;2.23;;
44046;SDS011;29713;-33.888;151.150;2023-06-22T04:36:54;5.90;;;2.03;;
44046;SDS011;29713;-33.888;151.150;2023-06-22T04:39:22;3.40;;;1.80;;
44046;SDS011;29713;-33.888;151.150;2023-06-22T04:41:50;6.43;;;2.50;;
44046;SDS011;29713;-33.888;151.150;2023-06-22T04:44:18;6.20;;;2.47;;
44046;SDS011;29713;-33.888;151.150;2023-06-22T04:46:51;5.57;;;2.00;;
44046;SDS011;29713;-33.888;151.150;2023-06-22T04:49:29;5.20;;;1.90;;
44046;SDS011;29713;-33.888;151.150;2023-06-22T04:52:05;5.33;;;1.90;;
44046;SDS011;29713;-33.888;151.150;2023-06-22T04:54:34;5.57;;;2.30;;
44046;SDS011;29713;-33.888;151.150;2023-06-22T04:57:02;4.80;;;1.88;;
44046;SDS011;29713;-33.888;151.150;2023-06-22T04:59:35;4.55;;;1.50;;
44046;SDS011;29713;-33.888;151.150;2023-06-22T05:02:05;2.60;;;1.83;;
44046;SDS011;29713;-33.888;151.150;2023-06-22T05:04:33;4.30;;;1.77;;
44046;SDS011;29713;-33.888;151.150;2023-06-22T05:07:06;7.20;;;1.67;;
44046;SDS011;29713;-33.888;151.150;2023-06-22T05:09:34;6.53;;;2.13;;
44046;SDS011;29713;-33.888;151.150;2023-06-22T05:12:02;6.75;;;2.35;;
44046;SDS011;29713;-33.888;151.150;2023-06-22T05:14:30;7.43;;;2.00;;
44046;SDS011;29713;-33.888;151.150;2023-06-22T05:16:57;4.63;;;2.00;;
44046;SDS011;29713;-33.888;151.150;2023-06-22T05:19:29;8.30;;;2.00;;
44046;SDS011;29713;-33.888;151.150;2023-06-22T05:21:59;6.20;;;1.83;;
44046;SDS011;29713;-33.888;151.150;2023-06-22T05:24:26;5.40;;;1.73;;
44046;SDS011;29713;-33.888;151.150;2023-06-22T05:26:53;3.90;;;2.10;;
44046;SDS011;29713;-33.888;151.150;2023-06-22T05:29:21;3.87;;;2.00;;
44046;SDS011;29713;-33.888;151.150;2023-06-22T05:31:48;4.63;;;1.90;;
44046;SDS011;29713;-33.888;151.150;2023-06-22T05:34:16;10.40;;;2.30;;
44046;SDS011;29713;-33.888;151.150;2023-06-22T05:36:43;6.67;;;2.03;;
44046;SDS011;29713;-33.888;151.150;2023-06-22T05:39:11;3.27;;;1.63;;
44046;SDS011;29713;-33.888;151.150;2023-06-22T05:41:39;4.73;;;1.80;;
44046;SDS011;29713;-33.888;151.150;2023-06-22T05:44:08;5.90;;;1.87;;
44046;SDS011;29713;-33.888;151.150;2023-06-22T05:46:36;4.87;;;2.10;;
44046;SDS011;29713;-33.888;151.150;2023-06-22T05:49:05;11.20;;;2.20;;
44046;SDS011;29713;-33.888;151.150;2023-06-22T05:51:34;8.20;;;2.20;;
44046;SDS011;29713;-33.888;151.150;2023-06-22T05:54:01;5.33;;;2.10;;
44046;SDS011;29713;-33.888;151.150;2023-06-22T05:56:28;10.57;;;2.23;;
44046;SDS011;29713;-33.888;151.150;2023-06-22T05:58:56;5.33;;;1.87;;
44046;SDS011;29713;-33.888;151.150;2023-06-22T06:01:30;7.90;;;2.20;;
44046;SDS011;29713;-33.888;151.150;2023-06-22T06:04:01;9.20;;;2.57;;
44046;SDS011;29713;-33.888;151.150;2023-06-22T06:06:35;5.33;;;2.30;;
44046;SDS011;29713;-33.888;151.150;2023-06-22T06:09:05;8.30;;;2.63;;
44046;SDS011;29713;-33.888;151.150;2023-06-22T06:11:33;13.93;;;3.27;;
44046;SDS011;29713;-33.888;151.150;2023-06-22T06:14:00;9.90;;;3.47;;
44046;SDS011;29713;-33.888;151.150;2023-06-22T06:16:30;13.17;;;3.90;;
44046;SDS011;29713;-33.888;151.150;2023-06-22T06:18:58;11.47;;;3.30;;
44046;SDS011;29713;-33.888;151.150;2023-06-22T06:21:25;9.27;;;3.10;;
44046;SDS011;29713;-33.888;151.150;2023-06-22T06:23:52;8.43;;;3.77;;
44046;SDS011;29713;-33.888;151.150;2023-06-22T06:26:20;8.17;;;3.93;;
44046;SDS011;29713;-33.888;151.150;2023-06-22T06:29:05;10.03;;;3.80;;
44046;SDS011;29713;-33.888;151.150;2023-06-22T06:31:32;11.47;;;4.33;;
44046;SDS011;29713;-33.888;151.150;2023-06-22T06:34:00;8.37;;;4.27;;
44046;SDS011;29713;-33.888;151.150;2023-06-22T06:36:27;9.77;;;4.20;;
44046;SDS011;29713;-33.888;151.150;2023-06-22T06:38:55;12.37;;;4.10;;
44046;SDS011;29713;-33.888;151.150;2023-06-22T06:41:25;13.90;;;4.70;;
44046;SDS011;29713;-33.888;151.150;2023-06-22T06:43:52;11.93;;;5.17;;
44046;SDS011;29713;-33.888;151.150;2023-06-22T06:46:20;12.10;;;4.80;;
44046;SDS011;29713;-33.888;151.150;2023-06-22T06:48:47;17.40;;;5.53;;
44046;SDS011;29713;-33.888;151.150;2023-06-22T06:51:14;13.43;;;5.87;;
44046;SDS011;29713;-33.888;151.150;2023-06-22T06:53:42;13.30;;;5.37;;
44046;SDS011;29713;-33.888;151.150;2023-06-22T06:56:09;9.73;;;4.67;;
44046;SDS011;29713;-33.888;151.150;2023-06-22T06:58:36;11.40;;;5.33;;
44046;SDS011;29713;-33.888;151.150;2023-06-22T07:01:08;11.67;;;5.53;;
44046;SDS011;29713;-33.888;151.150;2023-06-22T07:03:35;14.13;;;5.47;;
44046;SDS011;29713;-33.888;151.150;2023-06-22T07:06:02;15.40;;;5.90;;
44046;SDS011;29713;-33.888;151.150;2023-06-22T07:08:30;16.37;;;6.97;;
44046;SDS011;29713;-33.888;151.150;2023-06-22T07:10:57;15.60;;;6.70;;
44046;SDS011;29713;-33.888;151.150;2023-06-22T07:13:26;15.03;;;6.27;;
44046;SDS011;29713;-33.888;151.150;2023-06-22T07:15:54;14.30;;;6.70;;
44046;SDS011;29713;-33.888;151.150;2023-06-22T07:18:21;10.90;;;5.80;;
44046;SDS011;29713;-33.888;151.150;2023-06-22T07:20:49;14.17;;;6.33;;
44046;SDS011;29713;-33.888;151.150;2023-06-22T07:23:16;13.40;;;5.90;;
44046;SDS011;29713;-33.888;151.150;2023-06-22T07:25:44;17.07;;;5.93;;
44046;SDS011;29713;-33.888;151.150;2023-06-22T07:28:14;11.00;;;5.70;;
44046;SDS011;29713;-33.888;151.150;2023-06-22T07:30:41;13.53;;;5.93;;
44046;SDS011;29713;-33.888;151.150;2023-06-22T07:33:09;14.77;;;6.47;;
44046;SDS011;29713;-33.888;151.150;2023-06-22T07:35:36;12.03;;;6.47;;
44046;SDS011;29713;-33.888;151.150;2023-06-22T07:38:04;13.60;;;6.60;;
44046;SDS011;29713;-33.888;151.150;2023-06-22T07:40:31;14.07;;;9.77;;
44046;SDS011;29713;-33.888;151.150;2023-06-22T07:42:59;18.57;;;12.53;;
44046;SDS011;29713;-33.888;151.150;2023-06-22T07:45:26;20.17;;;14.47;;
44046;SDS011;29713;-33.888;151.150;2023-06-22T07:47:53;18.43;;;14.00;;
44046;SDS011;29713;-33.888;151.150;2023-06-22T07:50:21;18.73;;;11.63;;
44046;SDS011;29713;-33.888;151.150;2023-06-22T07:52:48;17.73;;;9.83;;
44046;SDS011;29713;-33.888;151.150;2023-06-22T07:55:18;17.50;;;9.77;;
44046;SDS011;29713;-33.888;151.150;2023-06-22T07:57:46;13.20;;;7.07;;
44046;SDS011;29713;-33.888;151.150;2023-06-22T08:00:17;21.00;;;7.83;;
44046;SDS011;29713;-33.888;151.150;2023-06-22T08:02:46;15.00;;;7.53;;
44046;SDS011;29713;-33.888;151.150;2023-06-22T08:05:14;12.87;;;7.63;;
44046;SDS011;29713;-33.888;151.150;2023-06-22T08:07:43;14.57;;;7.27;;
44046;SDS011;29713;-33.888;151.150;2023-06-22T08:10:10;14.73;;;6.63;;
44046;SDS011;29713;-33.888;151.150;2023-06-22T08:12:41;16.23;;;6.93;;
44046;SDS011;29713;-33.888;151.150;2023-06-22T08:15:09;17.33;;;7.70;;
44046;SDS011;29713;-33.888;151.150;2023-06-22T08:17:39;13.87;;;7.07;;
44046;SDS011;29713;-33.888;151.150;2023-06-22T08:20:07;14.37;;;7.03;;
44046;SDS011;29713;-33.888;151.150;2023-06-22T08:22:35;16.60;;;7.30;;
44046;SDS011;29713;-33.888;151.150;2023-06-22T08:25:03;11.53;;;6.30;;
44046;SDS011;29713;-33.888;151.150;2023-06-22T08:27:31;16.60;;;7.03;;
44046;SDS011;29713;-33.888;151.150;2023-06-22T08:29:59;11.80;;;6.93;;
44046;SDS011;29713;-33.888;151.150;2023-06-22T08:32:27;14.03;;;7.47;;
44046;SDS011;29713;-33.888;151.150;2023-06-22T08:34:55;15.30;;;6.70;;
44046;SDS011;29713;-33.888;151.150;2023-06-22T08:37:23;14.67;;;7.43;;
44046;SDS011;29713;-33.888;151.150;2023-06-22T08:39:59;13.40;;;7.90;;
44046;SDS011;29713;-33.888;151.150;2023-06-22T08:42:36;13.67;;;7.67;;
44046;SDS011;29713;-33.888;151.150;2023-06-22T08:45:03;15.33;;;7.50;;
44046;SDS011;29713;-33.888;151.150;2023-06-22T08:47:31;13.73;;;6.77;;
44046;SDS011;29713;-33.888;151.150;2023-06-22T08:49:59;12.63;;;6.93;;
44046;SDS011;29713;-33.888;151.150;2023-06-22T08:52:28;13.97;;;7.30;;
44046;SDS011;29713;-33.888;151.150;2023-06-22T08:54:56;14.83;;;6.83;;
44046;SDS011;29713;-33.888;151.150;2023-06-22T08:57:27;12.80;;;6.90;;
44046;SDS011;29713;-33.888;151.150;2023-06-22T08:59:56;14.00;;;7.40;;
44046;SDS011;29713;-33.888;151.150;2023-06-22T09:02:29;11.80;;;6.93;;
44046;SDS011;29713;-33.888;151.150;2023-06-22T09:04:57;14.37;;;7.17;;
44046;SDS011;29713;-33.888;151.150;2023-06-22T09:07:24;17.47;;;6.90;;
44046;SDS011;29713;-33.888;151.150;2023-06-22T09:09:52;13.23;;;6.53;;
44046;SDS011;29713;-33.888;151.150;2023-06-22T09:12:19;15.87;;;6.73;;
44046;SDS011;29713;-33.888;151.150;2023-06-22T09:14:51;14.27;;;6.57;;
44046;SDS011;29713;-33.888;151.150;2023-06-22T09:17:19;13.03;;;7.17;;
44046;SDS011;29713;-33.888;151.150;2023-06-22T09:19:46;15.30;;;7.10;;
44046;SDS011;29713;-33.888;151.150;2023-06-22T09:22:14;16.50;;;7.17;;
44046;SDS011;29713;-33.888;151.150;2023-06-22T09:24:41;17.37;;;7.30;;
44046;SDS011;29713;-33.888;151.150;2023-06-22T09:27:09;18.47;;;7.33;;
44046;SDS011;29713;-33.888;151.150;2023-06-22T09:29:36;13.53;;;7.00;;
44046;SDS011;29713;-33.888;151.150;2023-06-22T09:32:04;15.30;;;6.70;;
44046;SDS011;29713;-33.888;151.150;2023-06-22T09:34:31;14.40;;;6.53;;
44046;SDS011;29713;-33.888;151.150;2023-06-22T09:36:59;11.60;;;6.93;;
44046;SDS011;29713;-33.888;151.150;2023-06-22T09:39:29;13.03;;;6.43;;
44046;SDS011;29713;-33.888;151.150;2023-06-22T09:41:58;11.10;;;6.63;;
44046;SDS011;29713;-33.888;151.150;2023-06-22T09:44:28;15.10;;;7.30;;
44046;SDS011;29713;-33.888;151.150;2023-06-22T09:46:55;15.43;;;7.53;;
44046;SDS011;29713;-33.888;151.150;2023-06-22T09:49:23;13.57;;;7.47;;
44046;SDS011;29713;-33.888;151.150;2023-06-22T09:51:54;14.43;;;7.53;;
44046;SDS011;29713;-33.888;151.150;2023-06-22T09:54:21;16.50;;;7.80;;
44046;SDS011;29713;-33.888;151.150;2023-06-22T09:56:49;13.53;;;8.70;;
44046;SDS011;29713;-33.888;151.150;2023-06-22T09:59:16;11.33;;;7.43;;
44046;SDS011;29713;-33.888;151.150;2023-06-22T10:01:43;14.73;;;7.30;;
44046;SDS011;29713;-33.888;151.150;2023-06-22T10:04:11;11.23;;;7.37;;
44046;SDS011;29713;-33.888;151.150;2023-06-22T10:06:38;14.90;;;7.90;;
44046;SDS011;29713;-33.888;151.150;2023-06-22T10:09:07;15.93;;;7.40;;
44046;SDS011;29713;-33.888;151.150;2023-06-22T10:11:34;13.57;;;6.97;;
44046;SDS011;29713;-33.888;151.150;2023-06-22T10:14:02;15.27;;;7.80;;
44046;SDS011;29713;-33.888;151.150;2023-06-22T10:16:33;17.80;;;8.17;;
44046;SDS011;29713;-33.888;151.150;2023-06-22T10:19:02;17.47;;;8.00;;
44046;SDS011;29713;-33.888;151.150;2023-06-22T10:21:29;15.37;;;7.70;;
44046;SDS011;29713;-33.888;151.150;2023-06-22T10:23:57;15.47;;;8.53;;
44046;SDS011;29713;-33.888;151.150;2023-06-22T10:26:27;15.27;;;8.00;;
44046;SDS011;29713;-33.888;151.150;2023-06-22T10:28:54;15.43;;;7.80;;
44046;SDS011;29713;-33.888;151.150;2023-06-22T10:31:22;14.73;;;7.50;;
44046;SDS011;29713;-33.888;151.150;2023-06-22T10:33:49;12.03;;;7.03;;
44046;SDS011;29713;-33.888;151.150;2023-06-22T10:36:16;14.30;;;7.43;;
44046;SDS011;29713;-33.888;151.150;2023-06-22T10:38:44;15.30;;;7.37;;
44046;SDS011;29713;-33.888;151.150;2023-06-22T10:41:12;17.83;;;7.77;;
44046;SDS011;29713;-33.888;151.150;2023-06-22T10:43:40;17.27;;;8.10;;
44046;SDS011;29713;-33.888;151.150;2023-06-22T10:46:07;13.90;;;7.47;;
44046;SDS011;29713;-33.888;151.150;2023-06-22T10:48:35;11.47;;;7.03;;
44046;SDS011;29713;-33.888;151.150;2023-06-22T10:51:02;15.23;;;7.50;;
44046;SDS011;29713;-33.888;151.150;2023-06-22T10:53:30;16.13;;;8.30;;
44046;SDS011;29713;-33.888;151.150;2023-06-22T10:55:57;13.20;;;7.37;;
44046;SDS011;29713;-33.888;151.150;2023-06-22T10:58:25;15.07;;;8.20;;
44046;SDS011;29713;-33.888;151.150;2023-06-22T11:00:52;11.93;;;7.70;;
44046;SDS011;29713;-33.888;151.150;2023-06-22T11:03:20;13.87;;;7.87;;
44046;SDS011;29713;-33.888;151.150;2023-06-22T11:05:47;15.87;;;7.40;;
44046;SDS011;29713;-33.888;151.150;2023-06-22T11:08:14;17.70;;;7.57;;
44046;SDS011;29713;-33.888;151.150;2023-06-22T11:10:42;12.17;;;7.03;;
44046;SDS011;29713;-33.888;151.150;2023-06-22T11:13:10;11.10;;;7.00;;
44046;SDS011;29713;-33.888;151.150;2023-06-22T11:15:37;10.67;;;6.67;;
44046;SDS011;29713;-33.888;151.150;2023-06-22T11:18:05;11.57;;;6.70;;
44046;SDS011;29713;-33.888;151.150;2023-06-22T11:20:33;13.17;;;6.87;;
44046;SDS011;29713;-33.888;151.150;2023-06-22T11:23:04;13.73;;;6.60;;
44046;SDS011;29713;-33.888;151.150;2023-06-22T11:25:33;12.47;;;7.30;;
44046;SDS011;29713;-33.888;151.150;2023-06-22T11:28:04;10.63;;;7.50;;
44046;SDS011;29713;-33.888;151.150;2023-06-22T11:30:31;11.83;;;7.30;;
44046;SDS011;29713;-33.888;151.150;2023-06-22T11:33:00;11.40;;;7.10;;
44046;SDS011;29713;-33.888;151.150;2023-06-22T11:35:29;10.57;;;7.13;;
44046;SDS011;29713;-33.888;151.150;2023-06-22T11:37:56;15.03;;;7.87;;
44046;SDS011;29713;-33.888;151.150;2023-06-22T11:40:23;10.70;;;7.17;;
44046;SDS011;29713;-33.888;151.150;2023-06-22T11:42:51;14.53;;;8.20;;
44046;SDS011;29713;-33.888;151.150;2023-06-22T11:45:18;13.13;;;7.60;;
44046;SDS011;29713;-33.888;151.150;2023-06-22T11:47:46;14.63;;;8.40;;
44046;SDS011;29713;-33.888;151.150;2023-06-22T11:50:13;14.57;;;8.00;;
44046;SDS011;29713;-33.888;151.150;2023-06-22T11:52:41;15.67;;;7.67;;
44046;SDS011;29713;-33.888;151.150;2023-06-22T11:55:08;11.93;;;7.33;;
44046;SDS011;29713;-33.888;151.150;2023-06-22T11:57:36;9.67;;;6.63;;
44046;SDS011;29713;-33.888;151.150;2023-06-22T12:00:05;9.97;;;6.60;;
44046;SDS011;29713;-33.888;151.150;2023-06-22T12:02:43;9.83;;;6.77;;
44046;SDS011;29713;-33.888;151.150;2023-06-22T12:05:11;11.13;;;6.73;;
44046;SDS011;29713;-33.888;151.150;2023-06-22T12:07:38;13.30;;;7.33;;
44046;SDS011;29713;-33.888;151.150;2023-06-22T12:10:06;12.37;;;7.27;;
44046;SDS011;29713;-33.888;151.150;2023-06-22T12:12:36;13.73;;;6.87;;
44046;SDS011;29713;-33.888;151.150;2023-06-22T12:15:04;13.23;;;7.43;;
44046;SDS011;29713;-33.888;151.150;2023-06-22T12:17:33;14.30;;;7.97;;
44046;SDS011;29713;-33.888;151.150;2023-06-22T12:20:01;10.93;;;7.50;;
44046;SDS011;29713;-33.888;151.150;2023-06-22T12:22:31;15.47;;;7.73;;
44046;SDS011;29713;-33.888;151.150;2023-06-22T12:24:59;13.30;;;7.50;;
44046;SDS011;29713;-33.888;151.150;2023-06-22T12:27:27;13.17;;;6.93;;
44046;SDS011;29713;-33.888;151.150;2023-06-22T12:29:56;11.50;;;7.03;;
44046;SDS011;29713;-33.888;151.150;2023-06-22T12:32:23;9.20;;;6.90;;
44046;SDS011;29713;-33.888;151.150;2023-06-22T12:34:51;10.70;;;6.80;;
44046;SDS011;29713;-33.888;151.150;2023-06-22T12:37:19;11.50;;;7.17;;
44046;SDS011;29713;-33.888;151.150;2023-06-22T12:39:46;9.83;;;6.53;;
44046;SDS011;29713;-33.888;151.150;2023-06-22T12:42:14;11.03;;;6.77;;
44046;SDS011;29713;-33.888;151.150;2023-06-22T12:44:42;12.43;;;7.33;;
44046;SDS011;29713;-33.888;151.150;2023-06-22T12:47:10;12.10;;;6.93;;
44046;SDS011;29713;-33.888;151.150;2023-06-22T12:49:38;15.87;;;7.30;;
44046;SDS011;29713;-33.888;151.150;2023-06-22T12:52:09;10.87;;;7.17;;
44046;SDS011;29713;-33.888;151.150;2023-06-22T12:54:39;11.67;;;7.10;;
44046;SDS011;29713;-33.888;151.150;2023-06-22T12:57:10;13.93;;;6.97;;
44046;SDS011;29713;-33.888;151.150;2023-06-22T12:59:37;8.80;;;6.57;;
44046;SDS011;29713;-33.888;151.150;2023-06-22T13:02:05;9.60;;;6.33;;
44046;SDS011;29713;-33.888;151.150;2023-06-22T13:04:32;11.80;;;6.67;;
44046;SDS011;29713;-33.888;151.150;2023-06-22T13:07:00;12.20;;;6.70;;
44046;SDS011;29713;-33.888;151.150;2023-06-22T13:09:27;12.43;;;6.87;;
44046;SDS011;29713;-33.888;151.150;2023-06-22T13:11:54;11.80;;;7.00;;
44046;SDS011;29713;-33.888;151.150;2023-06-22T13:14:22;10.90;;;6.33;;
44046;SDS011;29713;-33.888;151.150;2023-06-22T13:16:49;9.53;;;6.97;;
44046;SDS011;29713;-33.888;151.150;2023-06-22T13:19:16;11.50;;;7.27;;
44046;SDS011;29713;-33.888;151.150;2023-06-22T13:21:44;10.80;;;7.07;;
44046;SDS011;29713;-33.888;151.150;2023-06-22T13:24:11;9.20;;;7.03;;
44046;SDS011;29713;-33.888;151.150;2023-06-22T13:26:39;10.73;;;7.20;;
44046;SDS011;29713;-33.888;151.150;2023-06-22T13:29:06;12.00;;;7.07;;
44046;SDS011;29713;-33.888;151.150;2023-06-22T13:31:33;12.17;;;7.20;;
44046;SDS011;29713;-33.888;151.150;2023-06-22T13:34:01;11.43;;;7.37;;
44046;SDS011;29713;-33.888;151.150;2023-06-22T13:36:28;11.83;;;7.30;;
44046;SDS011;29713;-33.888;151.150;2023-06-22T13:38:56;11.17;;;7.43;;
44046;SDS011;29713;-33.888;151.150;2023-06-22T13:41:23;11.13;;;7.30;;
44046;SDS011;29713;-33.888;151.150;2023-06-22T13:43:51;10.23;;;7.10;;
44046;SDS011;29713;-33.888;151.150;2023-06-22T13:46:18;8.23;;;6.77;;
44046;SDS011;29713;-33.888;151.150;2023-06-22T13:48:46;10.77;;;7.30;;
44046;SDS011;29713;-33.888;151.150;2023-06-22T13:51:13;11.83;;;7.23;;
44046;SDS011;29713;-33.888;151.150;2023-06-22T13:53:40;8.93;;;6.53;;
44046;SDS011;29713;-33.888;151.150;2023-06-22T13:56:08;8.63;;;6.30;;
44046;SDS011;29713;-33.888;151.150;2023-06-22T13:58:35;10.50;;;6.50;;
44046;SDS011;29713;-33.888;151.150;2023-06-22T14:01:03;7.53;;;5.77;;
44046;SDS011;29713;-33.888;151.150;2023-06-22T14:03:30;7.93;;;5.73;;
44046;SDS011;29713;-33.888;151.150;2023-06-22T14:05:57;7.53;;;5.87;;
44046;SDS011;29713;-33.888;151.150;2023-06-22T14:08:27;7.53;;;5.20;;
44046;SDS011;29713;-33.888;151.150;2023-06-22T14:10:55;7.50;;;4.40;;
44046;SDS011;29713;-33.888;151.150;2023-06-22T14:13:22;5.67;;;4.70;;